createdAt,value
2023-07-14T00:00:45.015Z,2.4
2023-07-14T00:06:21.483Z,0
2023-07-14T00:12:08.129Z,0
2023-07-14T00:17:36.092Z,4.8
2023-07-14T00:22:58.491Z,0
2023-07-14T00:28:52.169Z,0
2023-07-14T00:34:24.281Z,0
2023-07-14T00:39:50.660Z,0
2023-07-14T00:45:29.805Z,2.4
2023-07-14T00:50:58.718Z,0
2023-07-14T00:56:28.910Z,0
2023-07-14T01:02:16.221Z,0
2023-07-14T01:07:37.810Z,3.6
2023-07-14T01:13:13.294Z,0
2023-07-14T01:24:28.717Z,0
2023-07-14T01:30:01.732Z,0
2023-07-14T01:35:22.163Z,0
2023-07-14T01:41:10.886Z,0
2023-07-14T01:46:18.686Z,0
2023-07-14T01:51:53.991Z,0
2023-07-14T01:57:46.899Z,0
2023-07-14T02:03:19.346Z,3.6
2023-07-14T02:08:46.640Z,3.6
2023-07-14T02:14:18.045Z,3.6
2023-07-14T02:20:00.793Z,4.8
2023-07-14T02:25:19.236Z,4.8
2023-07-14T02:31:07.902Z,0
2023-07-14T02:36:22.696Z,0
2023-07-14T02:42:10.071Z,0
2023-07-14T02:47:35.923Z,0
2023-07-14T02:53:08.798Z,0
2023-07-14T03:04:13.238Z,0
2023-07-14T03:10:04.951Z,0
2023-07-14T03:15:33.678Z,2.4
2023-07-14T03:21:10.718Z,5.9
2023-07-14T03:26:32.382Z,4.8
2023-07-14T03:32:21.283Z,2.4
2023-07-14T03:37:44.261Z,4.8
2023-07-14T03:43:06.994Z,4.8
2023-07-14T03:48:43.803Z,3.6
2023-07-14T03:54:24.209Z,3.6
2023-07-14T03:59:59.801Z,5.9
2023-07-14T04:05:49.173Z,3.6
2023-07-14T04:11:08.380Z,3.6
2023-07-14T04:16:54.950Z,0
2023-07-14T04:22:24.529Z,4.8
2023-07-14T04:28:07.878Z,7.2
2023-07-14T04:33:18.889Z,5.9
2023-07-14T04:38:55.703Z,0
2023-07-14T04:44:37.045Z,0
2023-07-14T04:50:08.110Z,0
2023-07-14T04:55:39.731Z,3.6
2023-07-14T05:01:17.933Z,3.6
2023-07-14T05:06:38.200Z,5.9
2023-07-14T05:12:14.373Z,3.6
2023-07-14T05:18:03.564Z,4.8
2023-07-14T05:23:24.403Z,4.8
2023-07-14T05:29:00.478Z,0
2023-07-14T05:34:36.693Z,0
2023-07-14T05:40:15.448Z,0
2023-07-14T05:45:41.441Z,0
2023-07-14T05:51:31.738Z,0
2023-07-14T05:57:08.072Z,0
2023-07-14T06:02:35.059Z,0
2023-07-14T06:08:12.745Z,0
2023-07-14T06:19:11.548Z,0
2023-07-14T06:24:54.311Z,0
2023-07-14T06:30:15.235Z,0
2023-07-14T06:35:51.365Z,0
2023-07-14T06:41:28.228Z,0
2023-07-14T06:47:12.359Z,0
2023-07-14T06:52:35.091Z,0
2023-07-14T06:58:08.494Z,0
2023-07-14T07:09:37.150Z,0
2023-07-14T07:14:50.486Z,0
2023-07-14T07:20:43.760Z,0
2023-07-14T07:26:01.563Z,2.4
2023-07-14T07:31:48.340Z,3.6
2023-07-14T07:37:29.882Z,3.6
2023-07-14T07:43:02.588Z,4.8
2023-07-14T07:48:32.666Z,4.8
2023-07-14T07:59:45.265Z,5.9
2023-07-14T08:05:41.610Z,4.8
2023-07-14T08:11:12.615Z,4.8
2023-07-14T08:16:51.550Z,4.8
2023-07-14T08:22:31.586Z,2.4
2023-07-14T08:28:02.619Z,4.8
2023-07-14T08:33:19.157Z,3.6
2023-07-14T08:39:02.474Z,5.9
2023-07-14T08:44:39.601Z,4.8
2023-07-14T08:50:31.107Z,3.6
2023-07-14T08:55:49.366Z,4.8
2023-07-14T09:01:42.948Z,4.8
2023-07-14T09:07:12.523Z,5.9
2023-07-14T09:13:02.768Z,5.9
2023-07-14T09:18:34.930Z,5.9
2023-07-14T09:23:59.776Z,7.2
2023-07-14T09:29:51.090Z,5.9
2023-07-14T09:35:31.720Z,5.9
2023-07-14T09:40:56.182Z,8.4
2023-07-14T09:46:40.476Z,8.4
2023-07-14T09:52:21.381Z,5.9
2023-07-14T09:57:44.740Z,4.8
2023-07-14T10:14:52.094Z,5.9
2023-07-14T10:20:39.727Z,2.4
2023-07-14T10:26:15.455Z,5.9
2023-07-14T10:31:28.564Z,4.8
2023-07-14T10:37:19.661Z,3.6
2023-07-14T10:42:51.657Z,4.8
2023-07-14T10:54:10.940Z,5.9
2023-07-14T10:59:41.359Z,4.8
2023-07-14T11:05:41.244Z,0
2023-07-14T11:10:57.845Z,5.9
2023-07-14T11:16:56.753Z,9.6
2023-07-14T11:22:21.481Z,4.8
2023-07-14T11:28:13.253Z,5.9
2023-07-14T11:39:27.109Z,3.6
2023-07-14T11:44:56.148Z,7.2
2023-07-14T11:50:49.145Z,5.9
2023-07-14T11:56:06.188Z,5.9
2023-07-14T12:01:59.936Z,9.6
2023-07-14T12:07:36.690Z,5.9
2023-07-14T12:13:21.752Z,9.6
2023-07-14T12:24:19.150Z,10.7
2023-07-14T12:30:10.507Z,13.2
2023-07-14T12:35:33.194Z,13.2
2023-07-14T12:41:14.366Z,7.2
2023-07-14T12:47:01.156Z,11.9
2023-07-14T12:52:28.959Z,13.2
2023-07-14T12:58:24.291Z,9.6
2023-07-14T13:03:44.889Z,8.4
2023-07-14T13:09:32.770Z,9.6
2023-07-14T13:15:29.443Z,7.2
2023-07-14T13:20:55.204Z,8.4
2023-07-14T13:26:36.039Z,11.9
2023-07-14T13:32:25.216Z,10.7
2023-07-14T13:37:47.837Z,11.9
2023-07-14T13:49:10.044Z,9.6
2023-07-14T13:54:51.653Z,5.9
2023-07-14T14:00:43.420Z,8.4
2023-07-14T14:06:15.166Z,8.4
2023-07-14T14:11:58.282Z,8.4
2023-07-14T14:17:40.331Z,7.2
2023-07-14T14:23:07.445Z,8.4
2023-07-14T14:28:54.403Z,8.4
2023-07-14T14:34:35.269Z,9.6
2023-07-14T14:40:23.841Z,8.4
2023-07-14T14:45:58.573Z,5.9
2023-07-14T14:51:32.558Z,7.2
2023-07-14T14:57:17.763Z,8.4
2023-07-14T15:02:46.977Z,5.9
2023-07-14T15:08:20.696Z,7.2
2023-07-14T15:14:15.195Z,9.6
2023-07-14T15:20:01.055Z,7.2
2023-07-14T15:25:30.547Z,7.2
2023-07-14T15:30:54.794Z,4.8
2023-07-14T15:36:55.807Z,11.9
2023-07-14T15:42:41.443Z,7.2
2023-07-14T15:48:04.896Z,7.2
2023-07-14T15:53:40.382Z,8.4
2023-07-14T15:59:17.662Z,7.2
2023-07-14T16:05:07.611Z,7.2
2023-07-14T16:10:40.484Z,7.2
2023-07-14T16:16:27.403Z,8.4
2023-07-14T16:22:20.744Z,9.6
2023-07-14T16:27:45.247Z,9.6
2023-07-14T16:33:16.419Z,8.4
2023-07-14T16:39:13.164Z,8.4
2023-07-14T16:44:45.576Z,8.4
2023-07-14T16:50:26.361Z,7.2
2023-07-14T16:56:01.332Z,10.7
2023-07-14T17:01:51.027Z,9.6
2023-07-14T17:07:28.929Z,8.4
2023-07-14T17:13:16.409Z,8.4
2023-07-14T17:18:34.617Z,5.9
2023-07-14T17:24:07.078Z,5.9
2023-07-14T17:30:14.327Z,4.8
2023-07-14T17:35:47.142Z,8.4
2023-07-14T17:41:15.178Z,7.2
2023-07-14T17:47:01.395Z,5.9
2023-07-14T17:52:47.196Z,7.2
2023-07-14T17:58:27.206Z,7.2
2023-07-14T18:03:47.813Z,7.2
2023-07-14T18:09:18.884Z,7.2
2023-07-14T18:15:13.430Z,7.2
2023-07-14T18:20:47.185Z,7.2
2023-07-14T18:26:27.575Z,5.9
2023-07-14T18:32:18.990Z,7.2
2023-07-14T18:37:32.260Z,5.9
2023-07-14T18:54:47.761Z,5.9
2023-07-14T18:59:58.357Z,2.4
2023-07-14T19:05:46.615Z,0
2023-07-14T19:11:34.960Z,0
2023-07-14T19:16:44.422Z,0
2023-07-14T19:22:47.558Z,3.6
2023-07-14T19:28:06.324Z,3.6
2023-07-14T19:33:34.050Z,0
2023-07-14T19:39:31.887Z,0
2023-07-14T19:45:08.097Z,0
2023-07-14T19:50:26.810Z,0
2023-07-14T19:56:19.156Z,0
2023-07-14T20:01:40.814Z,0
2023-07-14T20:07:22.558Z,0
2023-07-14T20:12:52.400Z,0
2023-07-14T20:18:25.271Z,0
2023-07-14T20:23:58.437Z,3.6
2023-07-14T20:29:48.381Z,5.9
2023-07-14T20:35:12.710Z,2.4
2023-07-14T20:40:56.229Z,0
2023-07-14T20:46:07.803Z,0
2023-07-14T20:51:57.666Z,0
2023-07-14T20:57:21.805Z,0
2023-07-14T21:03:03.420Z,0
2023-07-14T21:08:44.762Z,0
2023-07-14T21:14:15.125Z,0
2023-07-14T21:19:37.442Z,0
2023-07-14T21:25:22.684Z,2.4
2023-07-14T21:31:03.545Z,0
2023-07-14T21:36:45.357Z,2.4
2023-07-14T21:42:09.718Z,0
2023-07-14T21:47:28.361Z,0
2023-07-14T21:53:26.845Z,0
2023-07-14T21:58:47.543Z,0
2023-07-14T22:04:34.112Z,0
2023-07-14T22:09:58.452Z,0
2023-07-14T22:15:31.579Z,0
2023-07-14T22:21:08.556Z,0
2023-07-14T22:26:44.352Z,0
2023-07-14T22:32:09.971Z,0
2023-07-14T22:37:39.351Z,0
2023-07-14T22:43:29.648Z,0
2023-07-14T23:00:21.057Z,0
2023-07-14T23:05:42.522Z,0
2023-07-14T23:11:22.105Z,0
2023-07-14T23:16:56.362Z,0
2023-07-14T23:22:28.555Z,0
2023-07-14T23:28:08.698Z,0
2023-07-14T23:38:58.889Z,0
2023-07-14T23:44:32.288Z,0
2023-07-14T23:50:24.154Z,0
2023-07-14T23:56:04.332Z,0
